Time;durP1;ratioP1;P1;durP2;ratioP2;P2;SDS_P1;SDS_P2;PMS_P1;PMS_P2;Temp;Humidity;BMP_temperature;BMP_pressure;BME280_temperature;BME280_humidity;BME280_pressure;Samples;Min_cycle;Max_cycle;Signal;HPM_P1;HPM_P2
2022/09/06 00:00:20;;;;;;;3.70;2.50;;;;;;;19.19;79.67;100746.50;698461;28;1051;-61
2022/09/06 00:00:40;;;;;;;3.70;2.22;;;;;;;19.19;80.25;100746.50;699153;28;1468;-60
2022/09/06 00:01:10;;;;;;;4.43;2.40;;;;;;;19.15;80.01;100747.56;699291;28;4261;-60
2022/09/06 00:01:30;;;;;;;3.85;2.50;;;;;;;19.08;79.50;100752.25;697496;28;1143;-60
2022/09/06 00:01:51;;;;;;;3.73;2.37;;;;;;;19.07;79.73;100741.72;695651;28;1251;-60
2022/09/06 00:02:11;;;;;;;4.15;2.45;;;;;;;19.09;79.08;100745.16;695727;28;1306;-61
2022/09/06 00:02:33;;;;;;;4.03;2.42;;;;;;;19.14;78.85;100748.50;696063;28;1119;-61
2022/09/06 00:02:53;;;;;;;3.88;2.40;;;;;;;19.20;78.78;100740.28;696676;28;844;-60
2022/09/06 00:03:15;;;;;;;4.05;2.40;;;;;;;19.22;79.93;100746.41;695390;28;1170;-60
2022/09/06 00:03:35;;;;;;;4.33;2.50;;;;;;;19.19;79.85;100742.09;695502;28;1102;-61
2022/09/06 00:03:56;;;;;;;3.60;2.40;;;;;;;19.19;79.70;100741.22;696820;28;4277;-60
2022/09/06 00:04:16;;;;;;;3.77;2.43;;;;;;;19.18;79.56;100742.16;696317;28;1036;-61
2022/09/06 00:04:37;;;;;;;4.13;2.50;;;;;;;19.14;79.35;100745.84;696675;28;1162;-59
2022/09/06 00:04:57;;;;;;;5.17;2.60;;;;;;;19.11;79.24;100738.88;696978;28;1169;-60
2022/09/06 00:05:18;;;;;;;4.07;2.42;;;;;;;19.10;79.19;100739.78;697082;28;1183;-61
2022/09/06 00:05:40;;;;;;;3.47;2.50;;;;;;;19.11;78.85;100741.53;696222;28;1586;-60
2022/09/06 00:06:08;;;;;;;4.20;2.33;;;;;;;19.10;79.56;100745.09;695743;28;1194;-59
2022/09/06 00:06:29;;;;;;;4.28;2.50;;;;;;;19.07;79.14;100741.72;696808;28;1150;-59
2022/09/06 00:06:49;;;;;;;4.30;2.40;;;;;;;19.05;79.18;100742.63;696498;28;4303;-62
2022/09/06 00:07:10;;;;;;;3.87;2.40;;;;;;;19.08;78.42;100743.41;695427;28;1476;-59
2022/09/06 00:07:30;;;;;;;3.90;2.30;;;;;;;19.16;78.43;100738.69;697416;28;1243;-60
2022/09/06 00:07:50;;;;;;;4.10;2.50;;;;;;;19.19;78.57;100736.78;699468;28;1169;-60
2022/09/06 00:08:11;;;;;;;3.53;2.40;;;;;;;19.23;79.22;100738.41;695861;28;1114;-60
2022/09/06 00:08:31;;;;;;;3.95;2.53;;;;;;;19.20;80.52;100735.88;696092;28;1103;-62
2022/09/06 00:08:52;;;;;;;4.23;2.50;;;;;;;19.17;79.68;100735.97;696218;28;1238;-60
2022/09/06 00:09:12;;;;;;;4.30;2.40;;;;;;;19.12;79.24;100740.63;696123;28;1451;-60
2022/09/06 00:09:33;;;;;;;4.80;2.37;;;;;;;19.09;78.97;100743.34;693347;28;1500;-59
2022/09/06 00:09:53;;;;;;;4.43;2.40;;;;;;;19.08;78.52;100741.66;693265;28;4521;-61
2022/09/06 00:10:14;;;;;;;4.68;2.50;;;;;;;19.11;79.62;100740.69;698050;28;1270;-60
2022/09/06 00:10:36;;;;;;;4.72;2.65;;;;;;;19.11;79.97;100736.22;696968;28;1389;-60
2022/09/06 00:10:57;;;;;;;3.97;2.50;;;;;;;19.10;80.21;100739.78;695521;28;1291;-59
2022/09/06 00:11:18;;;;;;;3.63;2.33;;;;;;;19.07;79.91;100734.63;692543;28;1219;-62
2022/09/06 00:11:38;;;;;;;4.30;2.40;;;;;;;19.05;79.55;100737.34;693937;28;1950;-60
2022/09/06 00:11:59;;;;;;;4.10;2.40;;;;;;;19.04;79.30;100740.91;690973;28;1399;-60
2022/09/06 00:12:20;;;;;;;3.60;2.22;;;;;;;19.05;79.48;100741.75;689569;28;1198;-60
2022/09/06 00:12:40;;;;;;;3.72;2.50;;;;;;;19.10;79.38;100737.16;693414;28;1349;-60
2022/09/06 00:13:03;;;;;;;4.47;2.43;;;;;;;19.11;79.00;100740.69;693065;28;4288;-61
2022/09/06 00:13:23;;;;;;;3.78;2.30;;;;;;;19.14;79.74;100741.41;692463;28;1123;-60
2022/09/06 00:13:44;;;;;;;3.57;2.20;;;;;;;19.13;79.96;100738.81;694984;28;1289;-60
2022/09/06 00:14:05;;;;;;;3.58;2.33;;;;;;;19.10;79.69;100739.78;691604;28;1412;-59
2022/09/06 00:14:25;;;;;;;3.58;2.50;;;;;;;19.10;79.38;100744.25;693863;28;1236;-60
2022/09/06 00:14:45;;;;;;;3.60;2.43;;;;;;;19.12;78.44;100743.25;694455;28;1344;-61
2022/09/06 00:15:06;;;;;;;3.33;2.30;;;;;;;19.23;78.27;100745.47;693407;28;1452;-60
2022/09/06 00:15:26;;;;;;;4.00;2.47;;;;;;;19.28;78.41;100742.66;693457;28;1212;-58
2022/09/06 00:15:47;;;;;;;4.03;2.50;;;;;;;19.39;77.33;100743.09;693724;28;1384;-59
2022/09/06 00:16:10;;;;;;;4.13;2.40;;;;;;;19.45;77.32;100744.63;695399;28;4376;-61
2022/09/06 00:16:30;;;;;;;4.20;2.22;;;;;;;19.50;76.33;100747.94;697370;28;3721;-60
2022/09/06 00:16:51;;;;;;;3.40;2.25;;;;;;;19.53;76.45;100747.81;695968;28;1292;-60
2022/09/06 00:17:11;;;;;;;3.87;2.23;;;;;;;19.54;75.76;100745.09;695578;28;1150;-61
2022/09/06 00:17:33;;;;;;;4.07;2.30;;;;;;;19.57;75.79;100744.97;696926;28;1154;-60
2022/09/06 00:17:53;;;;;;;4.30;2.25;;;;;;;19.63;75.26;100748.31;696051;28;1205;-61
2022/09/06 00:18:13;;;;;;;3.92;2.20;;;;;;;19.62;76.22;100747.44;694416;28;1201;-61
2022/09/06 00:18:34;;;;;;;3.83;2.20;;;;;;;19.62;74.06;100746.56;696450;28;1136;-60
2022/09/06 00:18:55;;;;;;;3.83;2.22;;;;;;;19.62;74.27;100746.56;697994;28;5588;-59
2022/09/06 00:19:15;;;;;;;3.30;2.17;;;;;;;19.60;73.79;100749.28;698706;28;1161;-61
2022/09/06 00:19:35;;;;;;;3.75;2.28;;;;;;;19.59;73.99;100752.84;699604;28;1235;-61
2022/09/06 00:19:56;;;;;;;4.00;2.40;;;;;;;19.57;72.25;100747.63;698558;28;1082;-60
2022/09/06 00:20:16;;;;;;;5.03;2.30;;;;;;;19.56;72.44;100745.91;695982;28;1120;-60
2022/09/06 00:20:40;;;;;;;3.75;2.30;;;;;;;19.55;71.44;100751.28;696243;28;1134;-59
2022/09/06 00:21:01;;;;;;;3.67;2.30;;;;;;;19.54;71.81;100754.84;693529;28;1336;-60
2022/09/06 00:21:25;;;;;;;4.13;2.20;;;;;;;19.54;73.10;100749.56;692665;28;1187;-60
2022/09/06 00:21:45;;;;;;;4.00;2.10;;;;;;;19.51;73.33;100755.84;694325;28;1150;-59
2022/09/06 00:22:05;;;;;;;3.42;2.20;;;;;;;19.52;74.00;100752.28;693604;28;4870;-60
2022/09/06 00:22:26;;;;;;;3.60;2.10;;;;;;;19.53;74.42;100747.81;696506;28;1182;-60
2022/09/06 00:22:46;;;;;;;4.10;2.40;;;;;;;19.52;73.48;100759.34;694265;28;1158;-61
2022/09/06 00:23:07;;;;;;;3.80;2.40;;;;;;;19.50;72.58;100754.09;696237;28;1206;-61
2022/09/06 00:23:27;;;;;;;3.92;2.10;;;;;;;19.48;72.12;100753.31;693010;28;1349;-61
2022/09/06 00:23:48;;;;;;;3.67;2.10;;;;;;;19.50;73.09;100748.81;693741;28;1382;-60
2022/09/06 00:24:08;;;;;;;3.55;2.03;;;;;;;19.58;73.77;100753.81;693662;28;1517;-60
2022/09/06 00:24:29;;;;;;;3.67;2.00;;;;;;;19.68;73.60;100755.13;694008;28;1492;-59
2022/09/06 00:24:49;;;;;;;3.47;1.90;;;;;;;19.73;73.53;100760.28;695143;28;4510;-60
2022/09/06 00:25:10;;;;;;;3.90;2.00;;;;;;;19.73;73.68;100758.47;695875;28;1460;-61
2022/09/06 00:25:32;;;;;;;4.38;2.30;;;;;;;19.81;73.74;100759.97;694393;28;1247;-60
2022/09/06 00:25:52;;;;;;;4.35;2.28;;;;;;;19.87;73.22;100762.38;693893;28;1206;-61
2022/09/06 00:26:13;;;;;;;3.73;2.23;;;;;;;19.87;74.14;100760.59;693365;28;1059;-61
2022/09/06 00:26:34;;;;;;;4.35;2.40;;;;;;;19.86;73.53;100766.81;693943;28;1151;-61
2022/09/06 00:26:54;;;;;;;3.65;2.40;;;;;;;19.92;73.32;100765.69;691397;28;1644;-61
2022/09/06 00:27:15;;;;;;;3.67;2.20;;;;;;;19.96;73.21;100766.44;691988;28;1079;-60
2022/09/06 00:27:35;;;;;;;3.30;2.30;;;;;;;19.97;72.84;100766.34;690712;28;1562;-61
2022/09/06 00:27:58;;;;;;;3.30;2.30;;;;;;;19.96;73.08;100763.78;690065;28;4552;-60
2022/09/06 00:28:18;;;;;;;3.80;2.30;;;;;;;19.93;71.99;100766.56;691682;28;1506;-61
2022/09/06 00:28:39;;;;;;;3.70;2.33;;;;;;;19.90;72.10;100772.84;688069;28;1559;-59
2022/09/06 00:28:59;;;;;;;3.27;2.20;;;;;;;19.87;71.57;100773.00;689708;28;1472;-59
2022/09/06 00:29:20;;;;;;;3.30;2.20;;;;;;;19.89;72.60;100777.28;690572;28;1684;-60
2022/09/06 00:29:40;;;;;;;3.83;2.17;;;;;;;19.95;72.18;100768.22;690124;28;1275;-59
2022/09/06 00:30:03;;;;;;;3.73;2.40;;;;;;;19.94;71.63;100774.44;690340;28;1369;-60
2022/09/06 00:30:24;;;;;;;4.38;2.30;;;;;;;19.98;72.07;100781.34;690279;28;1223;-60
2022/09/06 00:30:44;;;;;;;4.60;2.42;;;;;;;20.02;71.67;100787.38;692980;28;1312;-61
2022/09/06 00:31:13;;;;;;;4.13;2.30;;;;;;;20.06;71.62;100792.50;695144;28;4316;-60
2022/09/06 00:31:34;;;;;;;4.38;2.30;;;;;;;20.07;71.62;100788.91;695197;28;1918;-60
2022/09/06 00:31:54;;;;;;;3.75;2.10;;;;;;;20.10;71.22;100803.84;698959;28;1043;-61
2022/09/06 00:32:15;;;;;;;3.50;2.40;;;;;;;20.13;71.36;100808.16;698247;28;1196;-61
2022/09/06 00:32:35;;;;;;;3.30;2.30;;;;;;;20.13;71.58;100810.81;699554;28;1332;-60
2022/09/06 00:32:56;;;;;;;3.63;2.30;;;;;;;20.12;71.25;100819.69;699028;28;1362;-60
2022/09/06 00:33:16;;;;;;;3.58;2.10;;;;;;;20.11;71.02;100818.84;699303;28;1228;-61
2022/09/06 00:33:37;;;;;;;5.53;2.20;;;;;;;20.27;69.67;100813.75;698011;28;1067;-61
2022/09/06 00:33:57;;;;;;;4.87;2.20;;;;;;;20.36;69.55;100823.97;695207;28;4345;-60
2022/09/06 00:34:17;;;;;;;3.95;2.30;;;;;;;20.56;67.66;100816.91;696482;28;1221;-61
2022/09/06 00:34:38;;;;;;;4.27;2.50;;;;;;;20.46;67.96;100818.25;695826;28;996;-59
2022/09/06 00:34:58;;;;;;;4.27;2.43;;;;;;;20.38;68.11;100823.88;695416;28;1281;-59
2022/09/06 00:35:19;;;;;;;4.47;2.40;;;;;;;20.52;67.49;100821.50;696296;28;1216;-59
2022/09/06 00:35:40;;;;;;;3.83;2.50;;;;;;;20.56;67.18;100824.88;696532;28;1110;-59
2022/09/06 00:36:00;;;;;;;5.13;2.60;;;;;;;20.63;66.96;100828.13;696717;28;1158;-61
2022/09/06 00:36:21;;;;;;;4.70;2.45;;;;;;;20.59;66.98;100838.03;695854;28;1103;-60
2022/09/06 00:36:42;;;;;;;4.30;2.40;;;;;;;20.53;68.63;100843.59;696098;28;1118;-60
2022/09/06 00:37:02;;;;;;;4.17;2.37;;;;;;;20.50;67.47;100857.88;696022;28;4238;-59
2022/09/06 00:37:23;;;;;;;4.90;2.40;;;;;;;20.49;68.07;100865.91;696070;28;1279;-58
2022/09/06 00:37:43;;;;;;;6.27;2.60;;;;;;;20.54;67.50;100874.56;692842;28;1361;-61
2022/09/06 00:38:04;;;;;;;5.00;2.70;;;;;;;20.61;66.92;100876.00;694101;28;1352;-60
2022/09/06 00:38:24;;;;;;;4.87;2.67;;;;;;;20.70;66.18;100870.34;693504;28;1429;-61
2022/09/06 00:38:45;;;;;;;4.90;2.40;;;;;;;20.72;66.03;100863.16;690280;28;1520;-61
2022/09/06 00:39:05;;;;;;;5.90;2.57;;;;;;;20.71;66.21;100856.13;690878;28;5145;-60
2022/09/06 00:39:25;;;;;;;5.30;2.85;;;;;;;20.56;67.00;100856.75;693066;28;1072;-61
2022/09/06 00:39:46;;;;;;;5.33;2.80;;;;;;;20.58;67.63;100860.22;695794;28;1262;-59
2022/09/06 00:40:07;;;;;;;7.15;2.65;;;;;;;20.51;68.08;100858.75;694914;28;4366;-58
2022/09/06 00:40:31;;;;;;;7.78;2.85;;;;;;;20.41;68.41;100853.84;696688;28;1178;-60
2022/09/06 00:40:51;;;;;;;4.55;2.60;;;;;;;20.40;68.63;100868.03;694577;28;1126;-59
2022/09/06 00:41:13;;;;;;;3.77;2.47;;;;;;;20.44;68.65;100873.25;695006;28;1080;-58
2022/09/06 00:41:33;;;;;;;3.90;2.53;;;;;;;20.44;67.75;100874.09;695341;28;1127;-60
2022/09/06 00:41:54;;;;;;;4.87;2.73;;;;;;;20.55;66.82;100878.94;693304;28;1357;-58
2022/09/06 00:42:14;;;;;;;4.13;2.57;;;;;;;20.55;66.72;100876.28;692850;28;897;-61
2022/09/06 00:42:35;;;;;;;5.05;2.50;;;;;;;20.56;66.91;100888.63;693361;28;1427;-58
2022/09/06 00:42:57;;;;;;;4.83;2.70;;;;;;;20.70;66.25;100883.63;690446;28;4361;-60
2022/09/06 00:43:17;;;;;;;4.63;2.60;;;;;;;20.72;66.32;100880.91;691100;28;1053;-61
2022/09/06 00:43:38;;;;;;;6.00;2.80;;;;;;;20.73;66.56;100886.13;691739;28;1346;-59
2022/09/06 00:43:58;;;;;;;5.72;2.83;;;;;;;20.62;67.65;100880.41;693243;28;1436;-61
2022/09/06 00:44:19;;;;;;;3.70;2.50;;;;;;;20.55;68.06;100890.41;695578;28;1045;-58
2022/09/06 00:44:39;;;;;;;4.67;2.67;;;;;;;20.49;68.14;100888.03;694326;28;1328;-59
2022/09/06 00:45:00;;;;;;;5.22;2.95;;;;;;;20.50;68.43;100888.91;696906;28;1431;-58
2022/09/06 00:45:21;;;;;;;5.33;2.63;;;;;;;20.65;68.14;100893.53;693229;28;1209;-60
2022/09/06 00:45:42;;;;;;;5.32;2.65;;;;;;;20.75;67.23;100894.91;693869;28;1156;-60
2022/09/06 00:46:04;;;;;;;5.87;2.87;;;;;;;20.79;67.24;100884.16;693037;28;4316;-60
2022/09/06 00:46:29;;;;;;;5.05;2.70;;;;;;;20.78;67.60;100882.41;695133;28;1182;-60
2022/09/06 00:46:53;;;;;;;4.93;2.72;;;;;;;20.75;67.78;100881.63;697477;28;1630;-59
2022/09/06 00:47:13;;;;;;;5.97;2.55;;;;;;;20.72;68.09;100889.72;694995;28;1213;-60
2022/09/06 00:47:37;;;;;;;6.93;2.70;;;;;;;20.71;68.12;100884.47;694379;28;1138;-60
2022/09/06 00:48:00;;;;;;;7.30;2.60;;;;;;;20.77;68.41;100875.38;697142;28;1070;-59
2022/09/06 00:48:22;;;;;;;5.88;2.60;;;;;;;20.69;68.65;100876.56;695535;28;1126;-61
2022/09/06 00:48:44;;;;;;;6.05;2.72;;;;;;;20.62;69.18;100882.19;695983;28;1071;-60
2022/09/06 00:49:12;;;;;;;4.55;2.60;;;;;;;20.78;69.55;100880.59;695451;28;4399;-60
2022/09/06 00:49:39;;;;;;;9.00;2.92;;;;;;;20.68;70.16;100872.19;698712;28;1145;-61
2022/09/06 00:50:00;;;;;;;5.78;2.70;;;;;;;20.65;71.04;100871.44;699058;28;1165;-59
2022/09/06 00:50:20;;;;;;;5.22;2.60;;;;;;;20.57;71.36;100877.06;699140;28;1267;-60
2022/09/06 00:50:42;;;;;;;6.85;2.80;;;;;;;20.61;71.54;100877.81;698518;28;1169;-59
2022/09/06 00:51:07;;;;;;;6.93;2.80;;;;;;;20.59;71.11;100872.56;699241;28;1173;-59
2022/09/06 00:51:29;;;;;;;4.25;2.65;;;;;;;20.49;72.61;100877.41;697222;28;1113;-59
2022/09/06 00:51:53;;;;;;;4.68;2.70;;;;;;;20.45;72.78;100878.47;695614;28;4426;-59
2022/09/06 00:52:16;;;;;;;5.93;2.95;;;;;;;20.52;73.08;100874.63;696641;28;1362;-61
2022/09/06 00:52:38;;;;;;;5.05;2.65;;;;;;;20.39;74.39;100876.94;697089;28;1171;-61
2022/09/06 00:52:58;;;;;;;5.90;2.90;;;;;;;20.30;75.55;100874.69;697087;28;1056;-60
2022/09/06 00:53:19;;;;;;;5.37;3.00;;;;;;;20.29;75.76;100870.28;695344;28;1637;-60
2022/09/06 00:53:40;;;;;;;5.72;3.00;;;;;;;20.26;74.81;100875.72;696866;28;1095;-60
2022/09/06 00:54:04;;;;;;;6.13;3.05;;;;;;;20.23;74.38;100873.22;694392;28;1054;-61
2022/09/06 00:54:25;;;;;;;7.35;3.03;;;;;;;20.22;77.13;100869.69;695919;28;1688;-60
2022/09/06 00:54:47;;;;;;;8.13;3.00;;;;;;;20.31;76.43;100879.06;696976;28;1253;-59
2022/09/06 00:55:08;;;;;;;7.22;2.90;;;;;;;20.28;75.23;100878.31;696737;28;4677;-60
2022/09/06 00:55:29;;;;;;;6.70;3.17;;;;;;;20.27;75.17;100874.81;699244;28;1467;-59
2022/09/06 00:55:49;;;;;;;6.07;3.10;;;;;;;20.25;77.34;100874.84;698957;28;1487;-60
2022/09/06 00:56:10;;;;;;;7.87;3.10;;;;;;;20.34;80.53;100878.03;696789;28;1581;-59
2022/09/06 00:56:33;;;;;;;7.33;3.27;;;;;;;20.24;80.59;100877.56;696058;28;1609;-59
2022/09/06 00:56:55;;;;;;;6.88;3.13;;;;;;;20.12;81.64;100878.97;697503;28;1359;-60
2022/09/06 00:57:17;;;;;;;6.22;2.90;;;;;;;20.11;81.40;100876.38;695302;28;1209;-60
2022/09/06 00:57:38;;;;;;;7.07;3.10;;;;;;;20.17;81.00;100881.41;696533;28;1325;-59
2022/09/06 00:57:58;;;;;;;6.95;3.10;;;;;;;20.13;79.96;100874.50;697804;28;4611;-61
2022/09/06 00:58:19;;;;;;;7.10;3.27;;;;;;;20.09;81.12;100879.09;695543;28;1190;-61
2022/09/06 00:58:40;;;;;;;7.22;3.20;;;;;;;20.07;81.69;100876.47;696681;28;988;-59
2022/09/06 00:59:00;;;;;;;5.75;2.92;;;;;;;20.03;81.00;100879.34;695614;28;1229;-59
2022/09/06 00:59:24;;;;;;;6.00;2.90;;;;;;;19.99;81.49;100877.72;696052;28;1170;-60
2022/09/06 00:59:46;;;;;;;5.78;3.10;;;;;;;19.97;83.09;100880.44;695788;28;1395;-60
2022/09/06 01:00:08;;;;;;;6.82;3.38;;;;;;;19.97;83.07;100876.94;695468;28;1448;-60
2022/09/06 01:00:31;;;;;;;8.80;3.75;;;;;;;19.85;84.00;100872.97;696116;28;1449;-60
2022/09/06 01:00:52;;;;;;;5.95;3.17;;;;;;;19.60;90.14;100871.25;695165;28;4518;-59
2022/09/06 01:01:12;;;;;;;6.28;3.53;;;;;;;19.42;91.02;100872.00;694946;28;1205;-61
2022/09/06 01:01:33;;;;;;;6.67;3.43;;;;;;;19.32;91.01;100876.78;697039;28;1296;-60
2022/09/06 01:01:53;;;;;;;6.03;3.40;;;;;;;19.30;90.11;100876.84;696533;28;1323;-59
2022/09/06 01:02:14;;;;;;;7.30;3.53;;;;;;;19.39;85.42;100879.13;696552;28;1295;-59
2022/09/06 01:02:34;;;;;;;8.50;3.30;;;;;;;19.43;90.10;100876.38;692421;28;1237;-60
2022/09/06 01:02:55;;;;;;;7.67;3.50;;;;;;;19.67;88.87;100872.75;692959;28;1222;-58
2022/09/06 01:03:15;;;;;;;8.10;3.70;;;;;;;19.66;87.09;100876.34;691312;28;1143;-60
2022/09/06 01:03:36;;;;;;;7.45;3.67;;;;;;;19.62;87.78;100871.19;693255;28;1147;-59
2022/09/06 01:03:57;;;;;;;5.95;3.28;;;;;;;19.56;88.67;100875.84;692920;28;4382;-60
2022/09/06 01:04:17;;;;;;;7.25;3.45;;;;;;;19.49;90.83;100873.47;692556;28;1130;-60
2022/09/06 01:04:42;;;;;;;7.67;3.90;;;;;;;19.30;93.83;100868.00;693213;28;1139;-60
2022/09/06 01:05:04;;;;;;;6.47;3.42;;;;;;;19.29;91.12;100871.59;692806;28;1098;-60
2022/09/06 01:05:33;;;;;;;6.55;3.53;;;;;;;19.17;93.50;100872.91;693765;28;1159;-61
2022/09/06 01:06:00;;;;;;;6.60;3.55;;;;;;;19.03;94.69;100876.94;689772;28;1196;-59
2022/09/06 01:06:37;;;;;;;6.68;3.70;;;;;;;18.80;97.78;100879.50;692260;28;1214;-61
2022/09/06 01:07:09;;;;;;;6.97;3.75;;;;;;;18.79;97.33;100880.44;694847;28;4483;-58
2022/09/06 01:07:44;;;;;;;8.32;4.10;;;;;;;18.83;95.00;100874.09;691536;28;1278;-60
2022/09/06 01:08:25;;;;;;;4.95;3.35;;;;;;;18.93;91.68;100874.66;692673;28;1222;-61
2022/09/06 01:08:58;;;;;;;7.32;3.80;;;;;;;18.75;99.30;100876.16;693131;28;1155;-60
2022/09/06 01:09:40;;;;;;;6.28;3.75;;;;;;;18.67;99.08;100873.81;694495;28;991;-61
2022/09/06 01:10:30;;;;;;;5.65;3.45;;;;;;;18.77;95.18;100872.53;695976;28;4520;-59
2022/09/06 01:11:09;;;;;;;7.38;3.80;;;;;;;18.69;99.04;100866.66;696217;28;1347;-61
2022/09/06 01:11:57;;;;;;;8.60;3.83;;;;;;;18.47;100.00;100866.53;692443;28;2359;-60
2022/09/06 01:13:00;;;;;;;8.13;4.00;;;;;;;18.53;97.59;100867.19;692301;28;1336;-59
2022/09/06 01:13:23;;;;;;;6.68;3.78;;;;;;;18.56;99.15;100860.94;690286;28;6691;-60
2022/09/06 01:13:52;;;;;;;7.75;4.03;;;;;;;18.56;98.99;100858.28;694034;28;1238;-59
2022/09/06 01:14:39;;;;;;;6.72;3.80;;;;;;;18.66;98.75;100867.66;693574;28;1258;-60
2022/09/06 01:15:33;;;;;;;7.80;3.80;;;;;;;18.56;99.64;100866.22;692400;28;1238;-60
2022/09/06 01:16:02;;;;;;;6.32;3.97;;;;;;;18.48;100.00;100862.97;692800;28;4717;-59
2022/09/06 01:16:42;;;;;;;8.90;4.00;;;;;;;18.45;100.00;100863.94;695257;28;1457;-60
2022/09/06 01:17:15;;;;;;;7.80;4.00;;;;;;;18.56;94.98;100868.88;696927;28;1087;-59
2022/09/06 01:17:45;;;;;;;6.35;3.45;;;;;;;18.70;95.17;100866.59;694643;28;1257;-60
2022/09/06 01:18:05;;;;;;;7.32;3.78;;;;;;;18.57;100.00;100857.38;696549;28;1278;-61
2022/09/06 01:19:04;;;;;;;6.40;3.90;;;;;;;18.50;100.00;100862.00;696673;28;1155;-58
2022/09/06 01:19:53;;;;;;;8.32;4.05;;;;;;;18.48;100.00;100860.34;689086;28;4934;-59
2022/09/06 01:20:22;;;;;;;5.95;3.80;;;;;;;18.45;100.00;100857.78;691113;28;1418;-59
2022/09/06 01:20:48;;;;;;;5.65;3.60;;;;;;;18.56;97.23;100855.63;690404;28;1191;-60
2022/09/06 01:21:38;;;;;;;6.53;3.60;;;;;;;18.54;100.00;100857.50;687176;28;1417;-61
2022/09/06 01:22:47;;;;;;;6.95;4.03;;;;;;;18.36;100.00;100851.91;687597;28;4552;-59
2022/09/06 01:23:41;;;;;;;6.95;3.70;;;;;;;18.68;94.88;100855.22;698088;28;1256;-60
2022/09/06 01:24:20;;;;;;;5.57;3.60;;;;;;;18.81;97.84;100860.06;696615;28;1514;-59
2022/09/06 01:24:58;;;;;;;8.02;3.72;;;;;;;18.80;97.57;100851.28;695755;28;1297;-60
2022/09/06 01:25:35;;;;;;;8.45;3.95;;;;;;;18.84;94.88;100850.25;695478;28;4984;-59
2022/09/06 01:26:05;;;;;;;6.13;3.70;;;;;;;18.93;94.13;100843.75;696229;28;1281;-60
2022/09/06 01:26:34;;;;;;;6.18;3.90;;;;;;;18.83;99.40;100850.25;695554;28;1165;-59
2022/09/06 01:27:00;;;;;;;5.97;3.78;;;;;;;18.67;99.93;100848.19;696739;28;1442;-61
2022/09/06 01:27:59;;;;;;;6.22;3.92;;;;;;;18.54;100.00;100847.75;694915;28;1083;-59
2022/09/06 01:28:26;;;;;;;7.50;3.80;;;;;;;18.71;98.48;100848.94;692102;28;6366;-60
2022/09/06 01:28:49;;;;;;;7.18;3.85;;;;;;;18.72;98.56;100848.88;695013;28;1329;-60
2022/09/06 01:29:21;;;;;;;6.93;3.70;;;;;;;18.75;95.89;100850.56;695594;28;1518;-59
2022/09/06 01:29:55;;;;;;;5.90;3.83;;;;;;;18.78;95.74;100845.16;695189;28;1305;-61
2022/09/06 01:30:17;;;;;;;7.15;4.00;;;;;;;18.92;93.05;100836.72;695794;28;1326;-60
2022/09/06 01:30:46;;;;;;;5.88;3.83;;;;;;;18.93;98.26;100840.22;697356;28;1098;-59
2022/09/06 01:31:25;;;;;;;6.70;3.83;;;;;;;18.87;100.00;100849.22;695255;28;5561;-59
2022/09/06 01:31:53;;;;;;;6.72;4.18;;;;;;;18.85;98.50;100840.50;696044;28;1906;-59
2022/09/06 01:32:31;;;;;;;6.93;4.10;;;;;;;18.92;95.44;100835.88;696853;28;1280;-60
2022/09/06 01:32:59;;;;;;;6.78;3.85;;;;;;;18.91;97.49;100836.78;697190;28;1308;-61
2022/09/06 01:33:29;;;;;;;6.35;3.83;;;;;;;18.74;100.00;100835.59;696626;28;1127;-60
2022/09/06 01:34:12;;;;;;;8.68;4.25;;;;;;;18.70;99.16;100839.25;695340;28;4391;-60
2022/09/06 01:34:40;;;;;;;9.52;3.92;;;;;;;18.69;100.00;100841.06;696303;28;1273;-60
2022/09/06 01:35:21;;;;;;;5.65;3.90;;;;;;;18.63;98.86;100838.59;696901;28;1144;-61
2022/09/06 01:35:59;;;;;;;7.25;3.70;;;;;;;18.70;100.00;100840.13;695305;28;1187;-59
2022/09/06 01:36:26;;;;;;;7.28;3.95;;;;;;;18.76;98.27;100851.41;696410;28;1189;-59
2022/09/06 01:36:52;;;;;;;6.40;3.80;;;;;;;18.70;100.00;100848.06;694720;28;2216;-61
2022/09/06 01:37:16;;;;;;;6.82;4.00;;;;;;;18.66;97.80;100849.13;694460;28;5088;-60
2022/09/06 01:37:37;;;;;;;7.25;4.10;;;;;;;18.71;99.83;100856.88;695469;28;1163;-58
2022/09/06 01:37:59;;;;;;;7.30;4.00;;;;;;;18.69;99.63;100856.94;696138;28;1121;-58
2022/09/06 01:38:19;;;;;;;6.03;3.95;;;;;;;18.75;97.83;100855.84;694893;28;1333;-59
2022/09/06 01:38:40;;;;;;;7.20;4.07;;;;;;;18.75;99.55;100860.28;694336;28;1194;-59
2022/09/06 01:39:01;;;;;;;6.27;4.10;;;;;;;18.71;100.00;100864.81;692700;28;4967;-60
2022/09/06 01:39:27;;;;;;;5.82;4.03;;;;;;;18.70;100.00;100866.59;692994;28;1320;-59
2022/09/06 01:39:48;;;;;;;7.70;4.25;;;;;;;18.69;100.00;100870.19;692119;28;4360;-60
2022/09/06 01:40:08;;;;;;;6.67;4.20;;;;;;;18.71;100.00;100870.13;689657;28;1431;-60
2022/09/06 01:40:29;;;;;;;7.70;4.38;;;;;;;18.72;99.66;100867.41;691614;28;1586;-59
2022/09/06 01:40:49;;;;;;;7.60;4.10;;;;;;;18.78;96.95;100870.78;695088;28;1293;-60
2022/09/06 01:41:09;;;;;;;7.18;4.03;;;;;;;18.82;99.38;100867.94;696354;28;1424;-58
2022/09/06 01:41:31;;;;;;;6.83;4.00;;;;;;;18.81;98.01;100871.50;696539;28;1464;-60
2022/09/06 01:41:54;;;;;;;7.75;4.13;;;;;;;18.81;99.10;100870.66;695549;28;1254;-59
2022/09/06 01:42:20;;;;;;;7.70;4.40;;;;;;;18.82;100.00;100872.41;697541;28;1254;-60
2022/09/06 01:42:44;;;;;;;8.93;4.68;;;;;;;18.85;98.30;100872.28;698803;28;1141;-59
2022/09/06 01:43:09;;;;;;;8.85;4.40;;;;;;;18.89;100.00;100871.28;697686;28;4334;-59
2022/09/06 01:43:34;;;;;;;7.18;4.72;;;;;;;18.98;98.28;100870.97;697960;28;1589;-58
2022/09/06 01:43:56;;;;;;;8.20;4.38;;;;;;;18.97;98.39;100871.88;698381;28;1308;-59
2022/09/06 01:44:17;;;;;;;7.57;4.45;;;;;;;18.96;99.10;100871.94;695108;28;1220;-60
2022/09/06 01:44:42;;;;;;;7.57;4.38;;;;;;;19.04;99.33;100861.91;696631;28;1150;-60
2022/09/06 01:45:09;;;;;;;8.13;4.72;;;;;;;19.03;97.26;100866.34;695877;28;1323;-60
2022/09/06 01:45:45;;;;;;;7.55;4.40;;;;;;;19.04;98.70;100865.41;695963;28;1291;-59
2022/09/06 01:46:26;;;;;;;7.57;4.50;;;;;;;19.01;97.99;100860.25;696308;28;4390;-59
2022/09/06 01:47:07;;;;;;;7.10;4.43;;;;;;;18.99;98.86;100864.72;696352;28;1328;-61
2022/09/06 01:47:36;;;;;;;9.25;4.60;;;;;;;18.96;97.35;100867.47;694986;28;1254;-60
2022/09/06 01:48:03;;;;;;;7.85;4.47;;;;;;;18.94;98.63;100874.63;696907;28;1232;-60
2022/09/06 01:48:38;;;;;;;7.50;4.28;;;;;;;18.93;99.21;100869.38;695639;28;1054;-61
2022/09/06 01:49:04;;;;;;;9.82;4.60;;;;;;;18.88;97.87;100866.91;695007;28;4256;-60
2022/09/06 01:49:40;;;;;;;8.50;4.40;;;;;;;18.94;99.17;100872.00;696366;28;1138;-60
2022/09/06 01:50:12;;;;;;;7.18;4.60;;;;;;;19.05;100.00;100867.16;697198;28;1137;-60
2022/09/06 01:50:41;;;;;;;7.97;4.88;;;;;;;19.13;95.60;100871.31;699869;28;1276;-60
2022/09/06 01:51:20;;;;;;;7.55;4.40;;;;;;;19.01;98.11;100867.31;700297;28;1197;-60
2022/09/06 01:52:03;;;;;;;8.15;5.07;;;;;;;18.97;100.00;100863.91;699643;28;1914;-60
2022/09/06 01:52:38;;;;;;;8.88;5.20;;;;;;;18.88;100.00;100861.59;697197;28;4688;-60
2022/09/06 01:53:09;;;;;;;8.88;5.20;;;;;;;18.99;100.00;100863.88;697415;28;1122;-61
2022/09/06 01:53:38;;;;;;;8.82;5.18;;;;;;;18.98;100.00;100855.06;698905;28;1297;-60
2022/09/06 01:54:25;;;;;;;7.88;5.20;;;;;;;19.07;98.82;100853.84;697921;28;1213;-61
2022/09/06 01:55:36;;;;;;;8.20;5.03;;;;;;;19.01;98.87;100852.28;695800;28;1371;-61
2022/09/06 01:56:11;;;;;;;7.72;5.13;;;;;;;18.90;100.00;100849.19;688358;28;4914;-61
2022/09/06 01:56:39;;;;;;;10.02;4.80;;;;;;;18.77;100.00;100853.16;687632;28;1195;-61
2022/09/06 01:57:13;;;;;;;7.10;4.70;;;;;;;18.71;100.00;100844.50;688567;28;1208;-59
2022/09/06 01:57:51;;;;;;;7.65;4.60;;;;;;;18.78;99.22;100850.44;688644;28;1211;-60
2022/09/06 01:58:31;;;;;;;6.97;4.60;;;;;;;18.81;97.34;100858.28;687920;28;1262;-59
2022/09/06 01:58:57;;;;;;;8.75;5.00;;;;;;;18.88;95.50;100856.31;687306;28;1217;-60
2022/09/06 01:59:29;;;;;;;8.00;4.60;;;;;;;19.05;93.55;100856.56;687134;28;1191;-60
2022/09/06 02:00:02;;;;;;;6.82;4.45;;;;;;;19.28;92.70;100867.22;688246;28;1465;-61
2022/09/06 02:00:41;;;;;;;7.72;5.00;;;;;;;19.34;92.74;100861.66;686906;28;1212;-61
2022/09/06 02:01:09;;;;;;;9.30;5.10;;;;;;;19.38;94.87;100869.47;688296;28;4498;-60
2022/09/06 02:01:36;;;;;;;7.85;5.05;;;;;;;19.22;97.31;100866.53;688998;28;1358;-60